Time;durP1;ratioP1;P1;durP2;ratioP2;P2;SDS_P1;SDS_P2;PMS_P1;PMS_P2;Temp;Humidity;BMP_temperature;BMP_pressure;BME280_temperature;BME280_humidity;BME280_pressure;Samples;Min_cycle;Max_cycle;Signal;HPM_P1;HPM_P2
2023/09/28 00:00:37;;;;;;;9.58;7.25;;;;;;;22.78;58.70;101044.70;2317841;76;51467;-77
2023/09/28 00:03:40;;;;;;;11.57;8.20;;;;;;;22.77;58.71;101029.56;2307900;76;51521;-77
2023/09/28 00:06:42;;;;;;;10.90;7.53;;;;;;;22.78;58.65;101032.56;2318738;76;51434;-77
2023/09/28 00:09:44;;;;;;;12.33;7.30;;;;;;;22.78;58.72;101033.39;2299597;76;52320;-76
2023/09/28 00:12:51;;;;;;;11.50;7.83;;;;;;;22.79;58.60;101035.59;2285459;77;50099;-78
2023/09/28 00:15:54;;;;;;;14.87;7.75;;;;;;;22.78;58.59;101036.61;2285761;76;50300;-79
2023/09/28 00:18:56;;;;;;;12.07;7.50;;;;;;;22.78;58.65;101034.74;2289444;76;50867;-78
2023/09/28 00:21:58;;;;;;;12.13;7.40;;;;;;;22.79;58.54;101043.69;2333123;75;50613;-77
2023/09/28 00:25:00;;;;;;;12.75;7.78;;;;;;;22.78;58.56;101040.66;2306636;76;50622;-77
2023/09/28 00:28:05;;;;;;;9.93;7.70;;;;;;;22.78;58.53;101040.14;2334153;76;51529;-77
2023/09/28 00:31:07;;;;;;;12.33;7.97;;;;;;;22.77;58.51;101033.09;2291749;76;22301;-78
2023/09/28 00:34:09;;;;;;;12.30;7.00;;;;;;;22.78;58.50;101030.70;2331619;75;52004;-78
2023/09/28 00:37:11;;;;;;;11.53;7.58;;;;;;;22.77;58.49;101030.39;2307011;76;50717;-78
2023/09/28 00:43:26;;;;;;;12.75;7.80;;;;;;;22.78;58.48;101032.56;2318771;75;23073;-77
2023/09/28 00:46:31;;;;;;;10.95;7.80;;;;;;;22.77;58.51;101034.44;2318845;75;51591;-78
2023/09/28 00:49:34;;;;;;;10.88;8.05;;;;;;;22.78;58.48;101029.34;2318844;75;51605;-78
2023/09/28 00:52:38;;;;;;;8.98;6.92;;;;;;;22.78;58.49;101024.47;2318738;75;51452;-77
2023/09/28 00:55:40;;;;;;;10.75;7.87;;;;;;;22.77;58.43;101021.47;2318541;75;51478;-77
2023/09/28 00:58:42;;;;;;;14.18;7.83;;;;;;;22.77;58.47;101023.65;2296037;76;50078;-78
2023/09/28 01:01:47;;;;;;;11.95;7.35;;;;;;;22.77;58.48;101017.42;2318096;76;50023;-77
2023/09/28 01:04:48;;;;;;;11.53;7.37;;;;;;;22.77;58.46;101016.91;2318741;76;22264;-78
2023/09/28 01:07:50;;;;;;;11.53;7.45;;;;;;;22.77;58.41;101018.77;2306583;76;52499;-77
2023/09/28 01:10:53;;;;;;;10.20;7.45;;;;;;;22.77;58.48;101009.33;2293868;77;50628;-79
2023/09/28 01:13:55;;;;;;;10.75;7.47;;;;;;;22.76;58.51;101011.20;2279981;76;51532;-78
2023/09/28 01:16:58;;;;;;;9.28;7.33;;;;;;;22.76;58.53;101013.91;2297709;76;51498;-78
2023/09/28 01:20:00;;;;;;;9.58;7.25;;;;;;;22.76;58.47;101015.25;2333067;75;50439;-77
2023/09/28 01:23:04;;;;;;;12.03;7.28;;;;;;;22.77;58.48;101004.77;2306571;76;50452;-77
2023/09/28 01:26:06;;;;;;;8.88;7.37;;;;;;;22.76;58.39;101008.50;2332644;76;51501;-78
2023/09/28 01:29:10;;;;;;;9.23;6.90;;;;;;;22.76;58.44;101001.76;2313491;76;50372;-78
2023/09/28 01:32:12;;;;;;;10.98;7.37;;;;;;;22.76;58.41;101015.25;2301858;75;52391;-78
2023/09/28 01:35:14;;;;;;;10.63;7.15;;;;;;;22.76;58.51;101012.55;2318660;76;51694;-78
2023/09/28 01:38:38;;;;;;;8.73;7.40;;;;;;;22.76;58.45;101008.50;2289343;77;51409;-78
2023/09/28 01:41:40;;;;;;;9.20;7.10;;;;;;;22.76;58.51;101008.50;2299401;75;50703;-77
2023/09/28 01:44:43;;;;;;;9.75;7.05;;;;;;;22.74;58.49;101011.91;2332826;75;51403;-78
2023/09/28 01:47:45;;;;;;;8.88;7.35;;;;;;;22.75;58.43;101013.56;2306879;76;52330;-77
2023/09/28 01:50:48;;;;;;;7.40;6.70;;;;;;;22.75;58.45;101001.42;2333173;75;51500;-77
2023/09/28 01:53:50;;;;;;;8.30;6.78;;;;;;;22.75;58.42;101002.78;2318723;76;51580;-77
2023/09/28 01:56:53;;;;;;;8.85;7.22;;;;;;;22.75;58.43;100997.38;2279930;76;50044;-78
2023/09/28 01:59:55;;;;;;;13.03;7.28;;;;;;;22.74;58.47;100993.03;2318579;76;50711;-77
2023/09/28 02:02:57;;;;;;;8.88;7.28;;;;;;;22.75;58.47;100987.94;2297525;76;49866;-79
2023/09/28 02:05:59;;;;;;;8.93;6.53;;;;;;;22.75;58.39;100991.98;2298009;76;50718;-79
2023/09/28 02:09:03;;;;;;;9.15;6.75;;;;;;;22.74;58.45;100993.03;2323892;75;51586;-81
2023/09/28 02:12:06;;;;;;;9.38;6.72;;;;;;;22.74;58.41;100985.46;2306820;76;51348;-77
2023/09/28 02:15:15;;;;;;;9.35;6.85;;;;;;;22.74;58.41;100990.34;2306540;76;50447;-78
2023/09/28 02:18:16;;;;;;;8.55;6.72;;;;;;;22.75;58.37;100994.69;2306033;76;22276;-79
2023/09/28 02:21:18;;;;;;;8.53;7.05;;;;;;;22.75;58.37;100983.89;2293181;77;51434;-79
2023/09/28 02:24:20;;;;;;;8.88;6.90;;;;;;;22.75;58.39;100982.55;2280062;76;50701;-78
2023/09/28 02:27:22;;;;;;;8.30;6.92;;;;;;;22.74;58.41;100982.24;2299248;76;50293;-78
2023/09/28 02:30:25;;;;;;;9.08;6.87;;;;;;;22.73;58.41;100975.16;2285276;76;50330;-77
2023/09/28 02:33:28;;;;;;;8.58;6.72;;;;;;;22.73;58.40;100985.13;2306733;76;51525;-78
2023/09/28 02:36:33;;;;;;;9.23;6.90;;;;;;;22.74;58.40;100977.37;2280817;76;51395;-78
2023/09/28 02:39:38;;;;;;;8.35;6.80;;;;;;;22.74;58.34;100975.50;2306669;76;53591;-80
2023/09/28 02:42:42;;;;;;;11.60;6.83;;;;;;;22.74;58.33;100978.72;2318950;76;51620;-77
2023/09/28 02:45:44;;;;;;;10.25;7.20;;;;;;;22.73;58.33;100976.52;2318955;76;51624;-78
2023/09/28 02:48:46;;;;;;;8.60;6.40;;;;;;;22.73;58.31;100973.81;2333227;76;51455;-78
2023/09/28 02:51:50;;;;;;;9.30;7.03;;;;;;;22.73;58.38;100974.34;2318935;76;51514;-79
2023/09/28 02:54:52;;;;;;;7.62;6.78;;;;;;;22.72;58.36;100969.99;2306552;76;50680;-80
2023/09/28 02:57:54;;;;;;;9.88;7.08;;;;;;;22.72;58.29;100968.12;2303004;76;51458;-78
2023/09/28 03:00:57;;;;;;;9.70;6.80;;;;;;;22.73;58.34;100966.25;2292440;76;51765;-78
2023/09/28 03:04:00;;;;;;;7.12;6.40;;;;;;;22.72;58.30;100961.38;2330668;75;50416;-79
2023/09/28 03:07:02;;;;;;;9.50;6.47;;;;;;;22.72;58.30;100960.55;2325784;76;51572;-77
2023/09/28 03:10:05;;;;;;;8.05;6.58;;;;;;;22.71;58.30;100963.77;2280965;76;51041;-78
2023/09/28 03:13:12;;;;;;;8.98;6.67;;;;;;;22.72;58.28;100960.02;2332332;76;51483;-79
2023/09/28 03:16:11;;;;;;;9.43;6.83;;;;;;;22.72;58.31;100957.85;2331484;75;23001;-79
2023/09/28 03:19:14;;;;;;;12.23;6.80;;;;;;;22.70;58.34;100955.34;2306800;76;50611;-78
2023/09/28 03:22:16;;;;;;;11.35;6.87;;;;;;;22.71;58.24;100955.67;2332862;75;50368;-77
2023/09/28 03:25:21;;;;;;;8.10;6.22;;;;;;;22.71;58.26;100959.72;2303425;76;51897;-78
2023/09/28 03:28:23;;;;;;;8.33;6.70;;;;;;;22.71;58.25;100963.77;2310347;76;50016;-79
2023/09/28 03:31:28;;;;;;;8.55;6.90;;;;;;;22.61;58.29;100942.57;2316600;75;49938;-79
2023/09/28 03:34:31;;;;;;;9.15;6.40;;;;;;;22.71;58.20;100965.61;2281582;76;52593;-78
2023/09/28 03:37:33;;;;;;;7.42;6.65;;;;;;;22.70;58.19;100960.73;2318969;76;51504;-79
2023/09/28 03:40:35;;;;;;;9.48;6.62;;;;;;;22.71;58.21;100954.82;2306954;76;50680;-79
2023/09/28 03:43:38;;;;;;;8.98;7.12;;;;;;;22.71;58.18;100961.07;2332856;76;51319;-78
2023/09/28 03:46:40;;;;;;;9.05;6.53;;;;;;;22.70;58.23;100963.96;2333080;76;50749;-77
2023/09/28 03:49:42;;;;;;;9.80;6.58;;;;;;;22.70;58.22;100964.78;2281211;76;51324;-78
2023/09/28 03:52:44;;;;;;;7.05;6.10;;;;;;;22.70;58.16;100963.44;2306574;76;50716;-78
2023/09/28 03:55:49;;;;;;;9.05;6.60;;;;;;;22.70;58.13;100962.61;2304971;76;49926;-78
2023/09/28 03:58:52;;;;;;;9.13;6.35;;;;;;;22.70;58.18;100968.83;2297840;76;52608;-77
2023/09/28 04:01:54;;;;;;;7.60;6.05;;;;;;;22.70;58.13;100972.87;2276430;77;51460;-78
2023/09/28 04:04:56;;;;;;;11.00;6.08;;;;;;;22.69;58.19;100967.18;2311581;76;50658;-78
2023/09/28 04:07:59;;;;;;;9.30;6.67;;;;;;;22.69;58.16;100974.45;2305082;76;50099;-78
2023/09/28 04:11:01;;;;;;;7.47;6.12;;;;;;;22.69;58.18;100978.49;2333034;75;50391;-77
2023/09/28 04:14:03;;;;;;;8.10;6.28;;;;;;;22.68;58.11;100982.20;2332704;75;51397;-79
2023/09/28 04:17:05;;;;;;;10.15;6.47;;;;;;;22.69;58.11;100983.36;2293057;77;51389;-77
2023/09/28 04:20:09;;;;;;;8.35;6.40;;;;;;;22.69;58.12;100989.28;2307891;76;51579;-78
2023/09/28 04:23:12;;;;;;;7.65;6.30;;;;;;;22.68;58.13;100984.38;2318748;76;51559;-78
2023/09/28 04:26:14;;;;;;;9.85;6.37;;;;;;;22.69;58.11;100989.28;2306483;76;51587;-78
2023/09/28 04:29:17;;;;;;;7.85;6.40;;;;;;;22.69;58.08;100983.36;2325948;76;50764;-78
2023/09/28 04:32:19;;;;;;;7.17;5.97;;;;;;;22.68;58.07;100988.42;2260996;76;51436;-78
2023/09/28 04:35:22;;;;;;;6.50;5.90;;;;;;;22.68;58.09;100992.47;2300614;76;50303;-79
2023/09/28 04:38:24;;;;;;;7.55;6.50;;;;;;;22.68;58.09;100991.12;2320319;76;51506;-77
2023/09/28 04:41:27;;;;;;;8.75;6.45;;;;;;;22.68;58.03;100991.12;2334664;75;50404;-78
2023/09/28 04:44:30;;;;;;;7.90;6.20;;;;;;;22.69;58.05;100990.11;2333186;75;50027;-78
2023/09/28 04:47:32;;;;;;;8.58;6.12;;;;;;;22.68;58.14;100987.08;2292900;77;51511;-79
2023/09/28 04:50:34;;;;;;;8.00;5.85;;;;;;;22.69;58.16;100981.19;2244288;76;51460;-79
2023/09/28 04:53:37;;;;;;;11.15;6.05;;;;;;;22.70;58.13;100988.23;2246919;76;50218;-77
2023/09/28 04:56:39;;;;;;;12.55;6.62;;;;;;;22.69;58.22;100988.76;2295300;76;51622;-77
2023/09/28 04:59:41;;;;;;;12.20;6.80;;;;;;;22.70;59.21;100986.36;2322549;76;50653;-77
2023/09/28 05:02:47;;;;;;;26.17;6.70;;;;;;;22.70;59.24;100986.36;2283955;76;50844;-79
2023/09/28 05:05:49;;;;;;;11.10;6.47;;;;;;;22.72;59.62;100993.75;2266686;76;52502;-80
2023/09/28 05:08:52;;;;;;;9.25;6.17;;;;;;;22.73;59.56;100998.09;2334300;75;50411;-78
2023/09/28 05:11:56;;;;;;;11.85;6.75;;;;;;;22.73;59.94;100999.97;2319590;76;50723;-78
2023/09/28 05:14:59;;;;;;;13.60;6.30;;;;;;;22.73;59.91;101001.31;2283475;76;23875;-80
2023/09/28 05:18:01;;;;;;;18.60;6.30;;;;;;;22.72;59.81;101015.33;2310676;76;50753;-77
2023/09/28 05:21:03;;;;;;;13.75;6.22;;;;;;;22.73;59.89;101008.88;2295180;76;49553;-76
2023/09/28 05:24:05;;;;;;;14.65;6.42;;;;;;;22.74;59.76;101007.87;2302739;76;50472;-76
2023/09/28 05:27:09;;;;;;;17.65;6.97;;;;;;;22.73;59.83;101008.88;2296827;76;50442;-79
2023/09/28 05:30:13;;;;;;;13.85;6.53;;;;;;;22.74;59.77;101010.56;2277236;76;51634;-79
2023/09/28 05:33:16;;;;;;;11.18;6.17;;;;;;;22.75;59.85;101012.22;2299513;76;51532;-77
2023/09/28 05:36:20;;;;;;;12.30;6.87;;;;;;;22.74;59.85;101015.96;2293538;76;50760;-77
2023/09/28 05:39:23;;;;;;;13.32;7.10;;;;;;;22.75;59.76;101016.27;2306889;76;23180;-76
2023/09/28 05:42:25;;;;;;;15.38;6.10;;;;;;;22.75;59.63;101017.61;2273766;76;51565;-78
2023/09/28 05:45:28;;;;;;;15.05;6.58;;;;;;;22.76;59.71;101009.86;2302854;76;51480;-80
2023/09/28 05:48:30;;;;;;;11.68;6.70;;;;;;;22.75;59.68;101008.17;2332535;76;51440;-78
2023/09/28 05:51:33;;;;;;;14.83;6.83;;;;;;;22.75;59.89;101009.52;2328705;75;51390;-78
2023/09/28 05:54:35;;;;;;;15.85;6.45;;;;;;;22.77;59.66;101008.80;2306744;76;51107;-79
2023/09/28 05:57:37;;;;;;;19.10;6.60;;;;;;;22.75;59.84;101008.17;2282764;76;50623;-80
2023/09/28 06:00:40;;;;;;;17.10;6.47;;;;;;;22.76;59.72;101012.55;2287305;75;50227;-78
2023/09/28 06:03:43;;;;;;;17.48;6.60;;;;;;;22.75;59.72;101018.96;2327372;75;51077;-77
2023/09/28 06:06:46;;;;;;;20.55;7.28;;;;;;;22.79;59.41;101020.23;2290183;77;50984;-79
2023/09/28 06:09:49;;;;;;;18.32;6.67;;;;;;;22.83;59.16;101019.30;2315607;76;51773;-78
2023/09/28 06:12:51;;;;;;;21.35;7.28;;;;;;;22.87;59.24;101021.09;2314976;76;51474;-77
2023/09/28 06:15:53;;;;;;;19.95;7.28;;;;;;;22.92;59.16;101028.07;2281191;76;50349;-78
2023/09/28 06:18:56;;;;;;;15.20;7.47;;;;;;;22.95;60.04;101035.23;2297835;76;52514;-79
2023/09/28 06:21:59;;;;;;;19.85;7.58;;;;;;;23.01;59.97;101044.41;2319956;75;51510;-79
2023/09/28 06:25:02;;;;;;;15.03;6.55;;;;;;;23.06;60.13;101052.73;2303565;76;50909;-78
2023/09/28 06:28:04;;;;;;;24.35;9.00;;;;;;;23.07;59.85;101051.71;2292355;76;50204;-79
2023/09/28 06:31:07;;;;;;;24.63;10.30;;;;;;;23.09;60.44;101057.72;2292079;76;51445;-79
2023/09/28 06:34:09;;;;;;;17.27;7.87;;;;;;;23.14;60.16;101055.23;2314431;75;51635;-79
2023/09/28 06:37:11;;;;;;;14.13;7.50;;;;;;;23.17;59.58;101046.75;2301380;76;50763;-79
2023/09/28 06:40:13;;;;;;;15.03;7.62;;;;;;;23.21;59.22;101045.30;2253220;76;50712;-79
2023/09/28 06:43:16;;;;;;;15.75;7.87;;;;;;;23.23;58.88;101045.93;2225429;77;51711;-80
2023/09/28 06:46:19;;;;;;;17.12;8.68;;;;;;;23.24;58.51;101040.00;2273252;77;51422;-80
2023/09/28 06:49:21;;;;;;;14.55;8.75;;;;;;;23.23;58.21;101040.53;2273370;76;50845;-80
2023/09/28 06:52:24;;;;;;;12.23;8.25;;;;;;;23.25;57.86;101041.16;2273758;77;51588;-79
2023/09/28 06:55:26;;;;;;;13.20;8.73;;;;;;;23.25;57.51;101050.61;2250020;76;51720;-79
2023/09/28 06:58:28;;;;;;;16.65;8.80;;;;;;;23.25;57.23;101049.27;2262998;76;52447;-79
2023/09/28 07:01:30;;;;;;;17.35;9.30;;;;;;;23.22;57.03;101057.78;2288687;76;51447;-79
2023/09/28 07:04:32;;;;;;;17.87;9.33;;;;;;;23.19;56.84;101052.76;2291810;76;51376;-79
2023/09/28 07:07:35;;;;;;;16.62;9.88;;;;;;;23.20;56.63;101054.44;2266696;76;51015;-81
2023/09/28 07:10:37;;;;;;;16.30;9.45;;;;;;;23.16;56.49;101064.49;2291848;76;51610;-80
2023/09/28 07:13:39;;;;;;;11.90;9.30;;;;;;;23.18;56.23;101055.68;2291218;75;51402;-80
2023/09/28 07:16:42;;;;;;;17.20;9.70;;;;;;;23.15;56.14;101062.32;2291677;76;51480;-79
2023/09/28 07:19:44;;;;;;;12.15;9.40;;;;;;;23.16;55.89;101055.88;2292411;76;50271;-80
2023/09/28 07:22:48;;;;;;;14.78;9.63;;;;;;;23.17;55.69;101069.70;2266629;76;50093;-80
2023/09/28 07:25:51;;;;;;;15.20;9.83;;;;;;;23.15;55.52;101070.42;2317553;76;51548;-81
2023/09/28 07:28:54;;;;;;;15.40;10.15;;;;;;;23.15;55.40;101060.97;2311626;76;50750;-80
2023/09/28 07:31:56;;;;;;;16.93;9.98;;;;;;;23.14;55.24;101063.34;2281449;76;51653;-79
2023/09/28 07:34:58;;;;;;;14.75;10.45;;;;;;;23.15;55.12;101061.50;2318975;75;51547;-80
2023/09/28 07:38:00;;;;;;;14.83;10.03;;;;;;;23.12;54.95;101069.48;2319231;76;51526;-79
2023/09/28 07:41:03;;;;;;;13.68;10.23;;;;;;;23.14;54.80;101068.73;2307165;76;50160;-79
2023/09/28 07:44:05;;;;;;;14.25;10.28;;;;;;;23.13;54.67;101069.78;2307015;76;51634;-81
2023/09/28 07:47:11;;;;;;;12.23;9.98;;;;;;;23.12;54.56;101075.38;2307255;76;50607;-80
2023/09/28 07:50:14;;;;;;;13.25;9.80;;;;;;;23.11;54.48;101081.30;2333694;76;50715;-80
2023/09/28 07:53:16;;;;;;;13.43;10.18;;;;;;;23.13;54.38;101084.63;2305671;75;50015;-80
2023/09/28 07:56:18;;;;;;;12.45;9.80;;;;;;;23.13;54.29;101079.23;2281342;76;51251;-79
2023/09/28 07:59:21;;;;;;;13.88;10.30;;;;;;;23.13;54.18;101081.93;2318806;75;50639;-79
2023/09/28 08:02:23;;;;;;;12.18;9.25;;;;;;;23.13;54.20;101085.16;2319012;76;51466;-79
2023/09/28 08:05:25;;;;;;;14.28;11.08;;;;;;;23.12;54.13;101086.17;2305684;76;50687;-79
2023/09/28 08:08:28;;;;;;;13.83;10.60;;;;;;;23.12;54.08;101091.08;2307316;76;51451;-79
2023/09/28 08:11:30;;;;;;;15.38;10.60;;;;;;;23.11;54.03;101085.86;2281443;76;52475;-80
2023/09/28 08:14:32;;;;;;;14.75;10.30;;;;;;;23.09;54.03;101082.53;2319004;75;51449;-80
2023/09/28 08:17:44;;;;;;;11.45;10.25;;;;;;;23.07;54.06;101086.80;2319379;76;51404;-80
2023/09/28 08:20:39;;;;;;;14.63;10.68;;;;;;;23.07;54.03;101092.20;2317859;76;22233;-80
2023/09/28 08:23:41;;;;;;;13.48;10.60;;;;;;;23.06;54.03;101093.22;2319340;75;50209;-80
2023/09/28 08:26:43;;;;;;;15.72;9.80;;;;;;;23.03;54.08;101090.41;2319224;76;50695;-79
2023/09/28 08:29:46;;;;;;;13.62;9.88;;;;;;;23.04;54.03;101099.33;2318733;76;51515;-79
2023/09/28 08:32:48;;;;;;;13.55;10.72;;;;;;;23.04;54.10;101090.73;2276591;76;50735;-82
2023/09/28 08:35:51;;;;;;;13.88;10.50;;;;;;;23.02;54.10;101088.75;2276522;77;51140;-82
2023/09/28 08:38:54;;;;;;;17.30;10.82;;;;;;;23.03;54.09;101090.92;2298578;76;50308;-80
2023/09/28 08:41:56;;;;;;;14.78;10.45;;;;;;;23.03;54.16;101093.10;2298613;76;51448;-80
2023/09/28 08:45:05;;;;;;;15.55;10.82;;;;;;;23.03;54.14;101084.17;2298197;76;51439;-80
2023/09/28 08:48:06;;;;;;;14.78;10.70;;;;;;;23.02;54.17;101079.30;2297181;76;22445;-80
2023/09/28 08:51:09;;;;;;;17.62;10.75;;;;;;;23.02;54.23;101079.30;2298727;76;24591;-79
2023/09/28 08:54:11;;;;;;;13.08;10.48;;;;;;;23.00;54.28;101083.23;2298199;76;52236;-80
2023/09/28 08:57:15;;;;;;;15.93;10.85;;;;;;;23.00;54.36;101084.06;2302020;76;50136;-80
2023/09/28 09:00:22;;;;;;;14.87;10.30;;;;;;;23.00;54.37;101093.51;2282460;76;51749;-79
2023/09/28 09:03:22;;;;;;;12.53;9.98;;;;;;;23.00;54.44;101088.63;2307165;76;22172;-80
2023/09/28 09:06:25;;;;;;;16.48;10.75;;;;;;;22.99;54.48;101095.91;2319391;75;50082;-78
2023/09/28 09:09:27;;;;;;;14.73;10.65;;;;;;;22.98;54.55;101094.22;2307296;76;51238;-82
2023/09/28 09:12:32;;;;;;;14.38;10.25;;;;;;;22.98;54.59;101096.09;2319355;76;50613;-80
2023/09/28 09:15:36;;;;;;;13.83;11.15;;;;;;;22.97;54.65;101100.66;2319659;76;22341;-80
2023/09/28 09:18:38;;;;;;;12.18;10.28;;;;;;;22.98;54.72;101105.02;2307474;76;22460;-83
2023/09/28 09:21:43;;;;;;;15.70;11.12;;;;;;;22.97;54.75;101102.54;2319328;75;50334;-81
2023/09/28 09:24:54;;;;;;;14.95;10.85;;;;;;;22.97;54.78;101106.06;2281371;76;52512;-78
2023/09/28 09:27:56;;;;;;;13.95;10.23;;;;;;;22.97;54.83;101110.11;2305717;75;50156;-81
2023/09/28 09:30:58;;;;;;;12.90;10.35;;;;;;;22.96;54.91;101100.30;2318105;75;50639;-81
2023/09/28 09:34:07;;;;;;;12.68;10.20;;;;;;;22.95;55.02;101099.17;2292153;76;52536;-80
2023/09/28 09:37:13;;;;;;;14.33;10.50;;;;;;;22.95;55.12;101104.05;2293502;76;51518;-80
2023/09/28 09:40:16;;;;;;;14.80;10.75;;;;;;;22.95;55.15;101104.56;2319014;76;50127;-82
2023/09/28 09:43:19;;;;;;;14.98;10.68;;;;;;;22.95;55.17;101104.56;2317973;76;51366;-79
2023/09/28 09:46:21;;;;;;;12.90;9.88;;;;;;;22.96;55.24;101103.52;2318958;75;51794;-79
2023/09/28 09:49:27;;;;;;;12.43;9.55;;;;;;;22.94;55.37;101108.28;2261227;76;52781;-79
2023/09/28 09:52:27;;;;;;;13.32;9.90;;;;;;;22.94;55.42;101099.69;2315971;76;22289;-78
2023/09/28 09:55:29;;;;;;;11.57;9.65;;;;;;;22.93;55.47;101095.84;2317398;75;50688;-79
2023/09/28 09:58:37;;;;;;;13.48;9.70;;;;;;;22.94;55.52;101092.09;2249775;76;51099;-79
2023/09/28 10:01:38;;;;;;;13.98;9.43;;;;;;;22.97;55.50;101097.14;2313870;76;23651;-79
2023/09/28 10:04:39;;;;;;;13.50;10.00;;;;;;;22.99;55.45;101097.75;2317254;75;22955;-79
2023/09/28 10:07:42;;;;;;;11.33;9.75;;;;;;;23.00;55.43;101092.69;2317465;76;51406;-80
2023/09/28 10:10:44;;;;;;;10.30;9.30;;;;;;;22.99;55.47;101095.05;2318701;76;51537;-78
2023/09/28 10:13:49;;;;;;;11.78;9.45;;;;;;;23.02;55.43;101090.63;2317001;76;50698;-80
2023/09/28 10:16:53;;;;;;;11.20;9.35;;;;;;;23.00;55.47;101097.56;2292483;76;50299;-79
2023/09/28 10:20:00;;;;;;;10.98;9.18;;;;;;;23.04;55.44;101093.93;2317205;76;50430;-79
2023/09/28 10:23:15;;;;;;;11.75;9.60;;;;;;;23.02;55.45;101094.67;2261888;76;52531;-79
2023/09/28 10:26:18;;;;;;;12.77;9.53;;;;;;;23.04;55.40;101103.38;2315965;75;50481;-80
2023/09/28 10:29:32;;;;;;;10.45;8.23;;;;;;;23.04;55.43;101102.88;2303878;76;51588;-82
2023/09/28 10:32:29;;;;;;;11.57;9.58;;;;;;;23.06;55.40;101103.19;2314452;76;22996;-80
2023/09/28 10:35:34;;;;;;;;;;;;;;;23.06;55.37;101098.61;2321947;76;50679;-80
2023/09/28 10:38:37;;;;;;;10.90;9.30;;;;;;;23.09;55.35;101106.83;2333642;75;51712;-82
2023/09/28 10:41:40;;;;;;;11.22;8.48;;;;;;;23.07;55.37;101112.94;2333608;76;50319;-82
2023/09/28 10:44:50;;;;;;;11.48;8.83;;;;;;;23.07;55.42;101111.09;2305553;76;51453;-80
2023/09/28 10:47:53;;;;;;;10.65;9.33;;;;;;;23.08;55.41;101117.32;2306928;76;51221;-80
2023/09/28 10:50:55;;;;;;;13.30;9.15;;;;;;;23.07;55.39;101111.09;2333340;75;51512;-79
2023/09/28 10:53:57;;;;;;;11.60;9.08;;;;;;;23.05;55.43;101105.06;2319066;75;51435;-79
2023/09/28 10:57:01;;;;;;;11.68;8.98;;;;;;;23.06;55.42;101108.06;2306863;76;52287;-80
2023/09/28 11:00:12;;;;;;;11.22;9.08;;;;;;;23.07;55.42;101112.44;2308280;76;50637;-81
2023/09/28 11:03:08;;;;;;;10.38;8.10;;;;;;;23.06;55.41;101112.11;2269279;77;22700;-81
2023/09/28 11:06:11;;;;;;;9.83;8.80;;;;;;;23.06;55.38;101112.11;2271953;77;51487;-80
2023/09/28 11:09:14;;;;;;;10.10;8.28;;;;;;;23.08;55.33;101115.45;2270182;77;51417;-80
2023/09/28 11:12:18;;;;;;;13.30;8.75;;;;;;;23.09;55.30;101116.27;2241599;78;51073;-78
2023/09/28 11:15:20;;;;;;;9.60;8.60;;;;;;;23.08;55.24;101113.27;2270101;77;52109;-80
2023/09/28 11:18:23;;;;;;;9.98;8.28;;;;;;;23.08;55.14;101109.22;2270096;78;50745;-80
2023/09/28 11:21:27;;;;;;;11.30;8.25;;;;;;;23.10;55.12;101111.20;2246695;78;50969;-78
2023/09/28 11:24:29;;;;;;;11.25;8.80;;;;;;;23.10;55.07;101098.53;2246734;77;50424;-84
2023/09/28 11:27:31;;;;;;;11.03;7.45;;;;;;;23.09;54.92;101100.91;2270231;77;50783;-81
2023/09/28 11:30:34;;;;;;;10.00;7.12;;;;;;;23.05;54.63;101094.27;2308139;76;51297;-80
2023/09/28 11:33:37;;;;;;;9.65;6.67;;;;;;;23.06;54.50;101090.52;2318602;76;51244;-80
2023/09/28 11:36:39;;;;;;;9.50;8.10;;;;;;;23.06;54.33;101086.98;2318464;76;51271;-79
2023/09/28 11:39:42;;;;;;;8.83;7.12;;;;;;;23.04;54.27;101103.38;2292316;76;51552;-80
2023/09/28 11:42:45;;;;;;;10.60;7.45;;;;;;;23.02;54.39;101096.84;2317920;76;50545;-81
2023/09/28 11:45:49;;;;;;;9.40;7.47;;;;;;;23.05;54.26;101109.11;2292447;76;51527;-79
2023/09/28 11:49:05;;;;;;;8.78;7.72;;;;;;;23.04;54.24;101102.02;2318154;76;50701;-78
2023/09/28 11:52:07;;;;;;;9.95;6.85;;;;;;;23.04;54.12;101102.88;2292580;76;50788;-77
2023/09/28 11:55:17;;;;;;;7.85;7.05;;;;;;;23.06;54.05;101098.61;2319759;76;50760;-80
2023/09/28 11:58:20;;;;;;;9.18;6.97;;;;;;;23.05;53.97;101102.36;2310621;76;50767;-85
2023/09/28 12:01:23;;;;;;;9.03;6.97;;;;;;;23.06;53.93;101098.61;2288236;77;52589;-80
2023/09/28 12:04:26;;;;;;;7.45;6.75;;;;;;;23.06;53.89;101098.61;2310220;76;51055;-80
2023/09/28 12:07:28;;;;;;;8.88;7.00;;;;;;;23.06;53.87;101091.86;2284875;77;50958;-81
2023/09/28 12:10:30;;;;;;;10.32;6.62;;;;;;;23.06;53.84;101094.56;2259475;77;51193;-81
2023/09/28 12:13:32;;;;;;;8.00;6.70;;;;;;;23.06;53.80;101096.44;2284428;77;50711;-80
2023/09/28 12:16:35;;;;;;;8.33;7.50;;;;;;;23.04;53.76;101096.13;2284673;77;50465;-80
2023/09/28 12:19:37;;;;;;;11.05;7.12;;;;;;;23.05;53.80;101092.91;2284471;77;51628;-82
2023/09/28 12:22:40;;;;;;;7.00;5.90;;;;;;;23.04;53.80;101091.23;2310230;77;51459;-80
2023/09/28 12:25:43;;;;;;;10.48;6.50;;;;;;;23.04;53.70;101092.58;2305989;77;50426;-81
2023/09/28 12:28:45;;;;;;;10.32;6.85;;;;;;;23.06;53.65;101093.22;2304127;75;50627;-81
2023/09/28 12:31:47;;;;;;;8.65;6.33;;;;;;;23.06;53.64;101094.56;2286561;76;51460;-80
2023/09/28 12:34:50;;;;;;;10.25;6.12;;;;;;;23.08;53.58;101098.42;2222556;77;51790;-80
2023/09/28 12:37:53;;;;;;;9.03;6.45;;;;;;;23.12;53.31;101088.87;2271722;77;51239;-82
2023/09/28 12:40:55;;;;;;;6.67;5.97;;;;;;;23.12;53.21;101092.92;2270295;77;50816;-86
2023/09/28 12:43:58;;;;;;;9.00;5.83;;;;;;;23.13;53.12;101094.08;2272178;77;51941;-84
2023/09/28 12:47:00;;;;;;;6.75;6.05;;;;;;;23.14;52.97;101082.23;2254891;75;50680;-86
2023/09/28 12:50:03;;;;;;;7.17;5.50;;;;;;;23.13;52.99;101080.58;2308811;76;51474;-81
2023/09/28 12:53:05;;;;;;;7.80;6.22;;;;;;;23.14;52.94;101077.36;2321773;75;51452;-81
2023/09/28 12:56:09;;;;;;;8.15;5.90;;;;;;;23.13;52.99;101073.00;2290401;75;50380;-81
2023/09/28 12:59:13;;;;;;;6.72;6.00;;;;;;;23.14;53.09;101077.36;2311882;76;50599;-81
2023/09/28 13:02:15;;;;;;;7.08;6.15;;;;;;;23.14;53.08;101081.41;2307004;75;51033;-81
2023/09/28 13:05:18;;;;;;;7.55;5.58;;;;;;;23.18;52.96;101086.73;2298339;75;50165;-80
2023/09/28 13:08:20;;;;;;;7.17;6.03;;;;;;;23.18;53.11;101083.50;2233482;76;52322;-80
2023/09/28 13:11:22;;;;;;;11.60;6.65;;;;;;;23.20;53.20;101092.23;2283234;76;50682;-81
2023/09/28 13:14:27;;;;;;;7.45;6.12;;;;;;;23.22;53.38;101088.83;2260640;75;51412;-80
2023/09/28 13:17:30;;;;;;;11.88;7.12;;;;;;;23.26;53.56;101079.78;2291035;76;51814;-84
2023/09/28 13:20:33;;;;;;;6.95;6.25;;;;;;;23.26;53.64;101073.86;2297843;76;50846;-80
2023/09/28 13:23:36;;;;;;;13.15;6.92;;;;;;;23.28;53.75;101072.33;2291176;76;51540;-80
2023/09/28 13:26:38;;;;;;;11.60;6.85;;;;;;;23.30;53.89;101066.20;2262250;78;51478;-81
2023/09/28 13:29:41;;;;;;;8.85;6.95;;;;;;;23.30;53.85;101069.40;2285728;76;50779;-79
2023/09/28 13:32:43;;;;;;;8.85;6.25;;;;;;;23.31;53.85;101069.73;2264259;78;52799;-78
2023/09/28 13:35:45;;;;;;;8.93;6.78;;;;;;;23.31;53.89;101065.68;2268234;77;50571;-80
2023/09/28 13:38:49;;;;;;;7.37;6.67;;;;;;;23.32;53.91;101069.51;2268618;78;50289;-79
2023/09/28 13:41:51;;;;;;;11.28;7.03;;;;;;;23.33;53.91;101060.91;2244179;78;51061;-80
2023/09/28 13:44:53;;;;;;;9.18;6.90;;;;;;;23.33;53.88;101048.77;2280442;76;51423;-80
2023/09/28 13:47:56;;;;;;;10.08;6.87;;;;;;;23.34;53.91;101041.79;2242677;76;51356;-79
2023/09/28 13:50:58;;;;;;;12.93;7.05;;;;;;;23.35;53.91;101039.91;2268691;78;50476;-80
2023/09/28 13:54:00;;;;;;;8.83;6.60;;;;;;;23.37;53.93;101043.25;2268333;76;50523;-79
2023/09/28 13:57:07;;;;;;;10.05;6.85;;;;;;;23.38;53.95;101050.33;2243815;78;52523;-79
2023/09/28 14:00:13;;;;;;;9.40;6.60;;;;;;;23.39;53.95;101057.38;2285753;76;22472;-78
2023/09/28 14:03:11;;;;;;;;;;;;;;;23.40;53.93;101053.14;2304447;76;22254;-78
2023/09/28 14:06:14;;;;;;;9.40;6.67;;;;;;;23.42;53.94;101056.97;2276136;77;50041;-81